createdAt,value
2023-01-15T00:09:57.753Z,6.18
2023-01-15T00:20:25.456Z,6.25
2023-01-15T00:30:53.044Z,6.34
2023-01-15T00:41:20.684Z,6.42
2023-01-15T00:51:50.118Z,6.51
2023-01-15T01:02:17.878Z,6.61
2023-01-15T01:12:45.675Z,6.66
2023-01-15T01:23:13.207Z,6.66
2023-01-15T01:33:40.791Z,6.65
2023-01-15T01:44:29.949Z,6.64
2023-01-15T01:54:58.417Z,6.60
2023-01-15T02:05:31.797Z,6.53
2023-01-15T02:16:07.350Z,6.47
2023-01-15T02:26:58.322Z,6.41
2023-01-15T02:37:30.306Z,6.35
2023-01-15T02:48:03.725Z,6.30
2023-01-15T02:58:36.234Z,6.29
2023-01-15T03:09:04.338Z,6.34
2023-01-15T03:19:37.880Z,6.44
2023-01-15T03:30:10.982Z,6.58
2023-01-15T03:40:45.290Z,6.66
2023-01-15T03:51:18.814Z,6.73
2023-01-15T04:01:49.248Z,6.80
2023-01-15T04:12:16.926Z,6.83
2023-01-15T04:22:47.611Z,6.81
2023-01-15T04:33:15.588Z,6.81
2023-01-15T04:44:01.566Z,6.79
2023-01-15T04:54:29.726Z,6.79
2023-01-15T05:04:58.110Z,6.82
2023-01-15T05:15:26.310Z,6.82
2023-01-15T05:25:54.353Z,6.78
2023-01-15T05:36:24.160Z,6.69
2023-01-15T05:46:54.734Z,6.63
2023-01-15T05:57:23.467Z,6.55
2023-01-15T06:07:53.071Z,6.53
2023-01-15T06:18:20.744Z,6.50
2023-01-15T06:28:48.695Z,6.49
2023-01-15T06:39:16.569Z,6.48
2023-01-15T06:49:44.135Z,6.48
2023-01-15T07:00:14.083Z,6.49
2023-01-15T07:10:41.690Z,6.56
2023-01-15T07:21:09.249Z,6.69
2023-01-15T07:31:37.183Z,6.80
2023-01-15T07:42:22.187Z,6.89
2023-01-15T07:52:52.834Z,6.90
2023-01-15T08:03:21.077Z,6.89
2023-01-15T08:14:06.126Z,6.87
2023-01-15T08:24:33.701Z,6.88
2023-01-15T08:35:01.334Z,6.90
2023-01-15T08:45:28.929Z,6.93
2023-01-15T08:55:56.587Z,6.98
2023-01-15T09:06:24.112Z,7.04
2023-01-15T09:16:51.819Z,7.09
2023-01-15T09:27:19.364Z,7.15
2023-01-15T09:37:51.336Z,7.24
2023-01-15T09:48:27.623Z,7.31
2023-01-15T09:58:56.729Z,7.33
2023-01-15T10:09:31.454Z,7.24
2023-01-15T10:19:59.592Z,7.14
2023-01-15T10:30:38.806Z,7.08
2023-01-15T10:41:29.480Z,6.98
2023-01-15T10:52:03.893Z,6.81
2023-01-15T11:02:39.073Z,6.66
2023-01-15T11:13:39.581Z,6.58
2023-01-15T11:24:15.765Z,6.53
2023-01-15T11:34:43.313Z,6.50
2023-01-15T11:45:37.162Z,6.50
2023-01-15T11:56:13.188Z,6.50
2023-01-15T12:06:43.142Z,6.58
2023-01-15T12:17:26.386Z,6.67
2023-01-15T12:28:03.966Z,6.77
2023-01-15T12:38:47.399Z,6.83
2023-01-15T12:49:29.386Z,6.90
2023-01-15T13:00:03.927Z,6.97
2023-01-15T13:10:35.657Z,7.04
2023-01-15T13:21:11.266Z,7.10
2023-01-15T13:31:55.425Z,7.14
2023-01-15T13:42:35.623Z,7.15
2023-01-15T13:53:15.194Z,7.14
2023-01-15T14:03:42.782Z,7.09
2023-01-15T14:14:34.583Z,7.05
2023-01-15T14:25:22.520Z,7.00
2023-01-15T14:35:50.948Z,6.99
2023-01-15T14:46:28.709Z,6.97
2023-01-15T14:56:58.821Z,6.96
2023-01-15T15:07:29.284Z,7.04
2023-01-15T15:18:06.113Z,7.05
2023-01-15T15:28:33.642Z,7.03
2023-01-15T15:39:03.641Z,6.97
2023-01-15T15:49:41.538Z,6.93
2023-01-15T16:00:20.765Z,6.89
2023-01-15T16:10:52.070Z,6.78
2023-01-15T16:21:23.570Z,6.72
2023-01-15T16:31:51.499Z,6.73
2023-01-15T16:42:31.778Z,6.73
2023-01-15T16:53:02.021Z,6.66
2023-01-15T17:03:31.394Z,6.74
2023-01-15T17:14:12.956Z,6.71
2023-01-15T17:24:47.609Z,6.49
2023-01-15T17:35:22.695Z,6.28
2023-01-15T17:45:50.667Z,6.13
2023-01-15T17:56:35.381Z,6.00
2023-01-15T18:07:03.434Z,5.84
2023-01-15T18:17:31.893Z,5.63
2023-01-15T18:27:59.465Z,5.49
2023-01-15T18:38:26.990Z,5.36
2023-01-15T18:48:54.583Z,5.32
2023-01-15T18:59:22.240Z,5.35
2023-01-15T19:09:49.815Z,5.30
2023-01-15T19:20:20.130Z,5.23
2023-01-15T19:31:10.859Z,5.18
2023-01-15T19:41:56.095Z,5.07
2023-01-15T19:52:35.880Z,4.99
2023-01-15T20:03:03.668Z,4.93
2023-01-15T20:13:49.043Z,4.91
2023-01-15T20:24:16.713Z,4.98
2023-01-15T20:34:45.814Z,5.03
2023-01-15T20:45:15.208Z,5.07
2023-01-15T20:55:55.917Z,5.11
2023-01-15T21:06:25.360Z,5.08
2023-01-15T21:16:53.691Z,5.13
2023-01-15T21:27:21.405Z,5.08
2023-01-15T21:37:48.928Z,5.02
2023-01-15T21:48:16.648Z,4.93
2023-01-15T21:58:44.202Z,4.89
2023-01-15T22:09:11.711Z,4.89
2023-01-15T22:19:39.359Z,4.92
2023-01-15T22:30:08.649Z,4.97
2023-01-15T22:40:37.193Z,5.02
2023-01-15T22:51:05.219Z,5.12
2023-01-15T23:01:33.004Z,5.30
2023-01-15T23:12:00.560Z,5.48
2023-01-15T23:22:28.249Z,5.63
2023-01-15T23:32:57.522Z,5.90
2023-01-15T23:43:42.624Z,6.07
2023-01-15T23:54:10.150Z,5.90
